Los Angeles International Airport

KLAX | LAX

Los Angeles , California , United States

Monday, October 21st, 2019 | 20:50

Weather

KLAX 220253Z 24006KT 10SM CLR 24/11 A3001 RMK AO2 SLP159 T02390106 53011 $

Charts

103 Available

Gates

308 Available

Runways

4 Available

Events

No events for this airport


New event